sensor_id;sensor_type;location;lat;lon;timestamp;P1;durP1;ratioP1;P2;durP2;ratioP2
67640;SDS011;54434;50.096;20.082;2023-12-29T00:01:02;29.90;;;16.70;;
67640;SDS011;54434;50.096;20.082;2023-12-29T00:03:45;33.40;;;17.60;;
67640;SDS011;54434;50.096;20.082;2023-12-29T00:06:22;34.50;;;17.10;;
67640;SDS011;54434;50.096;20.082;2023-12-29T00:08:58;31.10;;;17.40;;
67640;SDS011;54434;50.096;20.082;2023-12-29T00:11:35;31.40;;;17.80;;
67640;SDS011;54434;50.096;20.082;2023-12-29T00:14:12;31.70;;;16.90;;
67640;SDS011;54434;50.096;20.082;2023-12-29T00:16:49;35.00;;;17.20;;
67640;SDS011;54434;50.096;20.082;2023-12-29T00:19:25;37.70;;;17.30;;
67640;SDS011;54434;50.096;20.082;2023-12-29T00:22:02;35.30;;;17.60;;
67640;SDS011;54434;50.096;20.082;2023-12-29T00:24:39;35.50;;;18.00;;
67640;SDS011;54434;50.096;20.082;2023-12-29T00:27:16;32.60;;;17.10;;
67640;SDS011;54434;50.096;20.082;2023-12-29T00:29:53;37.50;;;18.20;;
67640;SDS011;54434;50.096;20.082;2023-12-29T00:32:30;35.60;;;18.00;;
67640;SDS011;54434;50.096;20.082;2023-12-29T00:35:08;37.80;;;17.80;;
67640;SDS011;54434;50.096;20.082;2023-12-29T00:37:44;32.70;;;17.20;;
67640;SDS011;54434;50.096;20.082;2023-12-29T00:40:21;32.30;;;17.30;;
67640;SDS011;54434;50.096;20.082;2023-12-29T00:42:57;36.90;;;18.30;;
67640;SDS011;54434;50.096;20.082;2023-12-29T00:45:34;36.30;;;17.90;;
67640;SDS011;54434;50.096;20.082;2023-12-29T00:48:11;36.60;;;17.40;;
67640;SDS011;54434;50.096;20.082;2023-12-29T00:50:48;37.30;;;17.90;;
67640;SDS011;54434;50.096;20.082;2023-12-29T00:53:24;33.80;;;17.90;;
67640;SDS011;54434;50.096;20.082;2023-12-29T00:56:03;39.50;;;18.20;;
67640;SDS011;54434;50.096;20.082;2023-12-29T00:58:45;33.70;;;18.00;;
67640;SDS011;54434;50.096;20.082;2023-12-29T01:01:21;33.10;;;17.50;;
67640;SDS011;54434;50.096;20.082;2023-12-29T01:03:58;33.70;;;17.30;;
67640;SDS011;54434;50.096;20.082;2023-12-29T01:06:34;35.80;;;17.40;;
67640;SDS011;54434;50.096;20.082;2023-12-29T01:09:11;33.60;;;17.00;;
67640;SDS011;54434;50.096;20.082;2023-12-29T01:11:47;35.40;;;17.00;;
67640;SDS011;54434;50.096;20.082;2023-12-29T01:14:24;35.70;;;18.20;;
67640;SDS011;54434;50.096;20.082;2023-12-29T01:17:01;38.60;;;18.50;;
67640;SDS011;54434;50.096;20.082;2023-12-29T01:19:38;42.90;;;18.30;;
67640;SDS011;54434;50.096;20.082;2023-12-29T01:22:15;35.40;;;17.50;;
67640;SDS011;54434;50.096;20.082;2023-12-29T01:24:54;35.40;;;17.30;;
67640;SDS011;54434;50.096;20.082;2023-12-29T01:27:32;34.50;;;17.50;;
67640;SDS011;54434;50.096;20.082;2023-12-29T01:30:11;33.10;;;17.50;;
67640;SDS011;54434;50.096;20.082;2023-12-29T01:32:47;37.50;;;18.10;;
67640;SDS011;54434;50.096;20.082;2023-12-29T01:35:24;32.00;;;17.40;;
67640;SDS011;54434;50.096;20.082;2023-12-29T01:38:01;34.00;;;17.20;;
67640;SDS011;54434;50.096;20.082;2023-12-29T01:40:46;33.00;;;17.30;;
67640;SDS011;54434;50.096;20.082;2023-12-29T01:43:24;37.30;;;17.40;;
67640;SDS011;54434;50.096;20.082;2023-12-29T01:46:01;32.60;;;17.20;;
67640;SDS011;54434;50.096;20.082;2023-12-29T01:48:38;35.90;;;18.10;;
67640;SDS011;54434;50.096;20.082;2023-12-29T01:51:15;35.20;;;17.50;;
67640;SDS011;54434;50.096;20.082;2023-12-29T01:53:54;36.90;;;18.50;;
67640;SDS011;54434;50.096;20.082;2023-12-29T01:56:32;33.60;;;16.80;;
67640;SDS011;54434;50.096;20.082;2023-12-29T01:59:08;33.80;;;17.20;;
67640;SDS011;54434;50.096;20.082;2023-12-29T02:01:57;35.30;;;17.50;;
67640;SDS011;54434;50.096;20.082;2023-12-29T02:04:34;34.10;;;17.70;;
67640;SDS011;54434;50.096;20.082;2023-12-29T02:07:12;38.20;;;17.00;;
67640;SDS011;54434;50.096;20.082;2023-12-29T02:09:48;36.00;;;18.30;;
67640;SDS011;54434;50.096;20.082;2023-12-29T02:12:25;33.90;;;17.60;;
67640;SDS011;54434;50.096;20.082;2023-12-29T02:15:02;39.50;;;18.30;;
67640;SDS011;54434;50.096;20.082;2023-12-29T02:17:44;34.70;;;18.20;;
67640;SDS011;54434;50.096;20.082;2023-12-29T02:20:25;33.80;;;18.00;;
67640;SDS011;54434;50.096;20.082;2023-12-29T02:23:02;40.70;;;19.30;;
67640;SDS011;54434;50.096;20.082;2023-12-29T02:25:39;32.50;;;18.00;;
67640;SDS011;54434;50.096;20.082;2023-12-29T02:28:23;37.30;;;18.50;;
67640;SDS011;54434;50.096;20.082;2023-12-29T02:31:07;32.70;;;17.60;;
67640;SDS011;54434;50.096;20.082;2023-12-29T02:33:50;35.80;;;17.80;;
67640;SDS011;54434;50.096;20.082;2023-12-29T02:36:28;34.10;;;19.10;;
67640;SDS011;54434;50.096;20.082;2023-12-29T02:39:06;38.50;;;18.30;;
67640;SDS011;54434;50.096;20.082;2023-12-29T02:41:43;34.50;;;18.60;;
67640;SDS011;54434;50.096;20.082;2023-12-29T02:44:19;37.60;;;19.00;;
67640;SDS011;54434;50.096;20.082;2023-12-29T02:46:56;33.20;;;17.70;;
67640;SDS011;54434;50.096;20.082;2023-12-29T02:49:33;32.50;;;17.70;;
67640;SDS011;54434;50.096;20.082;2023-12-29T02:52:10;37.10;;;17.50;;
67640;SDS011;54434;50.096;20.082;2023-12-29T02:54:46;36.00;;;16.30;;
67640;SDS011;54434;50.096;20.082;2023-12-29T02:57:23;35.20;;;18.20;;
67640;SDS011;54434;50.096;20.082;2023-12-29T03:00:01;33.60;;;16.90;;
67640;SDS011;54434;50.096;20.082;2023-12-29T03:02:38;38.00;;;18.70;;
67640;SDS011;54434;50.096;20.082;2023-12-29T03:05:15;37.00;;;17.70;;
67640;SDS011;54434;50.096;20.082;2023-12-29T03:07:52;38.20;;;17.70;;
67640;SDS011;54434;50.096;20.082;2023-12-29T03:10:28;38.80;;;18.90;;
67640;SDS011;54434;50.096;20.082;2023-12-29T03:13:05;32.60;;;17.90;;
67640;SDS011;54434;50.096;20.082;2023-12-29T03:15:42;34.60;;;18.30;;
67640;SDS011;54434;50.096;20.082;2023-12-29T03:18:19;32.90;;;18.10;;
67640;SDS011;54434;50.096;20.082;2023-12-29T03:20:57;33.80;;;17.20;;
67640;SDS011;54434;50.096;20.082;2023-12-29T03:23:33;36.80;;;18.80;;
67640;SDS011;54434;50.096;20.082;2023-12-29T03:26:09;33.80;;;17.30;;
67640;SDS011;54434;50.096;20.082;2023-12-29T03:28:46;34.90;;;18.10;;
67640;SDS011;54434;50.096;20.082;2023-12-29T03:31:22;36.20;;;18.70;;
67640;SDS011;54434;50.096;20.082;2023-12-29T03:33:59;37.50;;;18.70;;
67640;SDS011;54434;50.096;20.082;2023-12-29T03:36:35;31.70;;;17.40;;
67640;SDS011;54434;50.096;20.082;2023-12-29T03:39:11;35.60;;;18.60;;
67640;SDS011;54434;50.096;20.082;2023-12-29T03:41:48;36.70;;;18.40;;
67640;SDS011;54434;50.096;20.082;2023-12-29T03:44:24;32.60;;;18.00;;
67640;SDS011;54434;50.096;20.082;2023-12-29T03:47:01;35.50;;;18.00;;
67640;SDS011;54434;50.096;20.082;2023-12-29T03:49:37;31.50;;;17.10;;
67640;SDS011;54434;50.096;20.082;2023-12-29T03:52:14;35.20;;;17.50;;
67640;SDS011;54434;50.096;20.082;2023-12-29T03:54:50;35.60;;;18.30;;
67640;SDS011;54434;50.096;20.082;2023-12-29T03:57:27;34.60;;;18.20;;
67640;SDS011;54434;50.096;20.082;2023-12-29T04:00:05;36.00;;;18.50;;
67640;SDS011;54434;50.096;20.082;2023-12-29T04:02:45;34.10;;;17.90;;
67640;SDS011;54434;50.096;20.082;2023-12-29T04:05:22;31.40;;;17.30;;
67640;SDS011;54434;50.096;20.082;2023-12-29T04:08:00;34.30;;;16.90;;
67640;SDS011;54434;50.096;20.082;2023-12-29T04:10:40;37.50;;;17.20;;
67640;SDS011;54434;50.096;20.082;2023-12-29T04:13:16;33.20;;;17.50;;
67640;SDS011;54434;50.096;20.082;2023-12-29T04:15:53;31.20;;;16.50;;
67640;SDS011;54434;50.096;20.082;2023-12-29T04:18:29;35.30;;;17.30;;
67640;SDS011;54434;50.096;20.082;2023-12-29T04:21:07;34.30;;;17.00;;
67640;SDS011;54434;50.096;20.082;2023-12-29T04:23:47;33.60;;;19.20;;
67640;SDS011;54434;50.096;20.082;2023-12-29T04:26:23;33.90;;;16.80;;
67640;SDS011;54434;50.096;20.082;2023-12-29T04:29:00;57.50;;;28.10;;
67640;SDS011;54434;50.096;20.082;2023-12-29T04:31:36;35.30;;;19.10;;
67640;SDS011;54434;50.096;20.082;2023-12-29T04:34:13;32.20;;;16.80;;
67640;SDS011;54434;50.096;20.082;2023-12-29T04:36:49;30.10;;;15.80;;
67640;SDS011;54434;50.096;20.082;2023-12-29T04:39:26;29.80;;;16.10;;
67640;SDS011;54434;50.096;20.082;2023-12-29T04:42:03;30.10;;;15.50;;
67640;SDS011;54434;50.096;20.082;2023-12-29T04:44:40;29.30;;;14.60;;
67640;SDS011;54434;50.096;20.082;2023-12-29T04:47:16;30.00;;;15.70;;
67640;SDS011;54434;50.096;20.082;2023-12-29T04:49:53;30.70;;;15.90;;
67640;SDS011;54434;50.096;20.082;2023-12-29T04:52:29;56.00;;;24.70;;
67640;SDS011;54434;50.096;20.082;2023-12-29T04:55:07;34.50;;;17.80;;
67640;SDS011;54434;50.096;20.082;2023-12-29T04:57:44;31.00;;;16.10;;
67640;SDS011;54434;50.096;20.082;2023-12-29T05:00:22;29.60;;;16.10;;
67640;SDS011;54434;50.096;20.082;2023-12-29T05:02:58;26.30;;;14.90;;
67640;SDS011;54434;50.096;20.082;2023-12-29T05:05:35;28.40;;;15.20;;
67640;SDS011;54434;50.096;20.082;2023-12-29T05:08:11;25.80;;;15.10;;
67640;SDS011;54434;50.096;20.082;2023-12-29T05:10:48;29.20;;;15.10;;
67640;SDS011;54434;50.096;20.082;2023-12-29T05:13:24;27.70;;;15.80;;
67640;SDS011;54434;50.096;20.082;2023-12-29T05:16:01;27.60;;;14.80;;
67640;SDS011;54434;50.096;20.082;2023-12-29T05:18:38;28.60;;;16.10;;
67640;SDS011;54434;50.096;20.082;2023-12-29T05:21:19;28.70;;;15.60;;
67640;SDS011;54434;50.096;20.082;2023-12-29T05:23:57;30.50;;;15.60;;
67640;SDS011;54434;50.096;20.082;2023-12-29T05:26:34;27.50;;;15.90;;
67640;SDS011;54434;50.096;20.082;2023-12-29T05:29:10;32.20;;;16.70;;
67640;SDS011;54434;50.096;20.082;2023-12-29T05:31:46;31.40;;;17.20;;
67640;SDS011;54434;50.096;20.082;2023-12-29T05:34:23;34.50;;;17.40;;
67640;SDS011;54434;50.096;20.082;2023-12-29T05:37:06;29.80;;;16.80;;
67640;SDS011;54434;50.096;20.082;2023-12-29T05:39:50;28.90;;;16.20;;
67640;SDS011;54434;50.096;20.082;2023-12-29T05:42:28;32.40;;;17.60;;
67640;SDS011;54434;50.096;20.082;2023-12-29T05:45:06;33.70;;;17.50;;
67640;SDS011;54434;50.096;20.082;2023-12-29T05:47:44;33.90;;;17.90;;
67640;SDS011;54434;50.096;20.082;2023-12-29T05:50:20;32.10;;;17.90;;
67640;SDS011;54434;50.096;20.082;2023-12-29T05:52:57;37.80;;;18.50;;
67640;SDS011;54434;50.096;20.082;2023-12-29T05:55:34;32.80;;;16.80;;
67640;SDS011;54434;50.096;20.082;2023-12-29T05:58:11;34.50;;;17.60;;
67640;SDS011;54434;50.096;20.082;2023-12-29T06:00:49;32.40;;;17.70;;
67640;SDS011;54434;50.096;20.082;2023-12-29T06:03:26;32.80;;;17.60;;
67640;SDS011;54434;50.096;20.082;2023-12-29T06:06:03;34.60;;;17.20;;
67640;SDS011;54434;50.096;20.082;2023-12-29T06:08:40;30.70;;;17.40;;
67640;SDS011;54434;50.096;20.082;2023-12-29T06:11:19;33.00;;;16.70;;
67640;SDS011;54434;50.096;20.082;2023-12-29T06:13:55;29.30;;;17.10;;
67640;SDS011;54434;50.096;20.082;2023-12-29T06:16:32;33.00;;;17.10;;
67640;SDS011;54434;50.096;20.082;2023-12-29T06:19:09;31.80;;;16.80;;
67640;SDS011;54434;50.096;20.082;2023-12-29T06:21:46;29.20;;;16.50;;
67640;SDS011;54434;50.096;20.082;2023-12-29T06:24:23;29.90;;;16.40;;
67640;SDS011;54434;50.096;20.082;2023-12-29T06:27:00;30.30;;;16.50;;
67640;SDS011;54434;50.096;20.082;2023-12-29T06:29:37;29.80;;;16.10;;
67640;SDS011;54434;50.096;20.082;2023-12-29T06:32:15;30.00;;;15.70;;
67640;SDS011;54434;50.096;20.082;2023-12-29T06:34:52;29.40;;;16.10;;
67640;SDS011;54434;50.096;20.082;2023-12-29T06:37:29;27.60;;;15.90;;
67640;SDS011;54434;50.096;20.082;2023-12-29T06:40:08;29.90;;;15.60;;
67640;SDS011;54434;50.096;20.082;2023-12-29T06:42:45;28.10;;;15.70;;
67640;SDS011;54434;50.096;20.082;2023-12-29T06:45:22;29.30;;;16.20;;
67640;SDS011;54434;50.096;20.082;2023-12-29T06:47:59;27.70;;;14.80;;
67640;SDS011;54434;50.096;20.082;2023-12-29T06:50:37;28.10;;;15.40;;
67640;SDS011;54434;50.096;20.082;2023-12-29T06:53:14;28.60;;;14.70;;
67640;SDS011;54434;50.096;20.082;2023-12-29T06:55:51;26.80;;;14.30;;
67640;SDS011;54434;50.096;20.082;2023-12-29T06:58:28;24.80;;;14.00;;
67640;SDS011;54434;50.096;20.082;2023-12-29T07:01:05;26.80;;;14.40;;
67640;SDS011;54434;50.096;20.082;2023-12-29T07:03:42;25.10;;;14.20;;
67640;SDS011;54434;50.096;20.082;2023-12-29T07:06:19;25.50;;;13.60;;
67640;SDS011;54434;50.096;20.082;2023-12-29T07:08:56;24.20;;;11.90;;
67640;SDS011;54434;50.096;20.082;2023-12-29T07:11:35;22.00;;;11.40;;
67640;SDS011;54434;50.096;20.082;2023-12-29T07:14:12;22.50;;;11.60;;
67640;SDS011;54434;50.096;20.082;2023-12-29T07:16:48;23.60;;;11.80;;
67640;SDS011;54434;50.096;20.082;2023-12-29T07:19:25;21.10;;;11.20;;
67640;SDS011;54434;50.096;20.082;2023-12-29T07:22:09;21.20;;;11.70;;
67640;SDS011;54434;50.096;20.082;2023-12-29T07:24:46;17.10;;;9.90;;
67640;SDS011;54434;50.096;20.082;2023-12-29T07:27:23;17.30;;;9.40;;
67640;SDS011;54434;50.096;20.082;2023-12-29T07:30:00;16.40;;;9.40;;
67640;SDS011;54434;50.096;20.082;2023-12-29T07:32:38;17.70;;;9.50;;
67640;SDS011;54434;50.096;20.082;2023-12-29T07:35:15;17.90;;;10.00;;
67640;SDS011;54434;50.096;20.082;2023-12-29T07:37:56;17.80;;;9.70;;
67640;SDS011;54434;50.096;20.082;2023-12-29T07:40:33;18.10;;;9.60;;
67640;SDS011;54434;50.096;20.082;2023-12-29T07:43:10;20.20;;;9.20;;
67640;SDS011;54434;50.096;20.082;2023-12-29T07:45:47;19.40;;;9.40;;
67640;SDS011;54434;50.096;20.082;2023-12-29T07:48:35;16.60;;;8.70;;
67640;SDS011;54434;50.096;20.082;2023-12-29T07:51:13;16.00;;;7.60;;
67640;SDS011;54434;50.096;20.082;2023-12-29T07:53:50;17.20;;;8.10;;
67640;SDS011;54434;50.096;20.082;2023-12-29T07:56:26;15.10;;;7.50;;
67640;SDS011;54434;50.096;20.082;2023-12-29T07:59:02;12.40;;;6.90;;
67640;SDS011;54434;50.096;20.082;2023-12-29T08:01:39;14.10;;;6.50;;
67640;SDS011;54434;50.096;20.082;2023-12-29T08:04:16;13.30;;;6.60;;
67640;SDS011;54434;50.096;20.082;2023-12-29T08:06:52;13.80;;;6.20;;
67640;SDS011;54434;50.096;20.082;2023-12-29T08:09:29;13.20;;;6.60;;
67640;SDS011;54434;50.096;20.082;2023-12-29T08:12:08;10.90;;;5.90;;
67640;SDS011;54434;50.096;20.082;2023-12-29T08:14:44;10.40;;;6.00;;
67640;SDS011;54434;50.096;20.082;2023-12-29T08:17:20;9.90;;;5.40;;
67640;SDS011;54434;50.096;20.082;2023-12-29T08:19:57;10.90;;;5.30;;
67640;SDS011;54434;50.096;20.082;2023-12-29T08:22:34;10.20;;;5.50;;
67640;SDS011;54434;50.096;20.082;2023-12-29T08:25:11;12.10;;;5.40;;
67640;SDS011;54434;50.096;20.082;2023-12-29T08:27:50;9.70;;;5.40;;
67640;SDS011;54434;50.096;20.082;2023-12-29T08:30:26;8.90;;;5.30;;
67640;SDS011;54434;50.096;20.082;2023-12-29T08:33:03;10.00;;;5.10;;
67640;SDS011;54434;50.096;20.082;2023-12-29T08:35:41;10.20;;;4.80;;
67640;SDS011;54434;50.096;20.082;2023-12-29T08:38:19;8.40;;;4.60;;
67640;SDS011;54434;50.096;20.082;2023-12-29T08:40:56;9.30;;;5.20;;
67640;SDS011;54434;50.096;20.082;2023-12-29T08:43:32;8.80;;;4.40;;
67640;SDS011;54434;50.096;20.082;2023-12-29T08:46:09;9.90;;;3.90;;
67640;SDS011;54434;50.096;20.082;2023-12-29T08:48:46;6.80;;;4.00;;
67640;SDS011;54434;50.096;20.082;2023-12-29T08:51:23;7.20;;;3.80;;
67640;SDS011;54434;50.096;20.082;2023-12-29T08:53:59;8.40;;;4.30;;
67640;SDS011;54434;50.096;20.082;2023-12-29T08:56:36;7.30;;;3.50;;
67640;SDS011;54434;50.096;20.082;2023-12-29T08:59:12;6.00;;;3.50;;
67640;SDS011;54434;50.096;20.082;2023-12-29T09:01:48;10.50;;;3.90;;
67640;SDS011;54434;50.096;20.082;2023-12-29T09:04:25;6.60;;;3.60;;
67640;SDS011;54434;50.096;20.082;2023-12-29T09:07:02;6.40;;;3.30;;
67640;SDS011;54434;50.096;20.082;2023-12-29T09:09:39;10.70;;;3.20;;
67640;SDS011;54434;50.096;20.082;2023-12-29T09:12:16;10.90;;;3.30;;
67640;SDS011;54434;50.096;20.082;2023-12-29T09:14:53;8.00;;;3.00;;
67640;SDS011;54434;50.096;20.082;2023-12-29T09:17:29;7.30;;;2.80;;
67640;SDS011;54434;50.096;20.082;2023-12-29T09:20:08;5.80;;;2.80;;
67640;SDS011;54434;50.096;20.082;2023-12-29T09:22:45;6.50;;;3.00;;
67640;SDS011;54434;50.096;20.082;2023-12-29T09:25:22;6.50;;;2.80;;
67640;SDS011;54434;50.096;20.082;2023-12-29T09:27:58;6.30;;;2.90;;
67640;SDS011;54434;50.096;20.082;2023-12-29T09:30:35;6.60;;;2.80;;
67640;SDS011;54434;50.096;20.082;2023-12-29T09:33:12;5.50;;;2.80;;
67640;SDS011;54434;50.096;20.082;2023-12-29T09:35:48;5.20;;;2.40;;
67640;SDS011;54434;50.096;20.082;2023-12-29T09:38:25;5.80;;;2.70;;
67640;SDS011;54434;50.096;20.082;2023-12-29T09:41:08;5.40;;;2.40;;
67640;SDS011;54434;50.096;20.082;2023-12-29T09:43:47;4.80;;;2.40;;
67640;SDS011;54434;50.096;20.082;2023-12-29T09:46:24;4.40;;;2.40;;
67640;SDS011;54434;50.096;20.082;2023-12-29T09:49:04;5.20;;;2.30;;
67640;SDS011;54434;50.096;20.082;2023-12-29T09:51:43;5.50;;;2.10;;
67640;SDS011;54434;50.096;20.082;2023-12-29T09:54:21;4.20;;;2.20;;
67640;SDS011;54434;50.096;20.082;2023-12-29T09:56:58;6.60;;;2.30;;
67640;SDS011;54434;50.096;20.082;2023-12-29T09:59:37;4.60;;;2.10;;
67640;SDS011;54434;50.096;20.082;2023-12-29T10:02:16;3.70;;;2.10;;
67640;SDS011;54434;50.096;20.082;2023-12-29T10:04:52;5.40;;;2.60;;
67640;SDS011;54434;50.096;20.082;2023-12-29T10:07:31;7.70;;;2.30;;
67640;SDS011;54434;50.096;20.082;2023-12-29T10:10:15;5.20;;;2.30;;
67640;SDS011;54434;50.096;20.082;2023-12-29T10:12:53;4.60;;;2.20;;
67640;SDS011;54434;50.096;20.082;2023-12-29T10:15:41;4.50;;;2.20;;
67640;SDS011;54434;50.096;20.082;2023-12-29T10:18:48;4.40;;;2.00;;
67640;SDS011;54434;50.096;20.082;2023-12-29T10:21:37;5.00;;;1.90;;
67640;SDS011;54434;50.096;20.082;2023-12-29T10:24:21;3.40;;;1.80;;
67640;SDS011;54434;50.096;20.082;2023-12-29T10:26:57;6.10;;;2.00;;
67640;SDS011;54434;50.096;20.082;2023-12-29T10:29:33;3.50;;;1.70;;
67640;SDS011;54434;50.096;20.082;2023-12-29T10:32:11;4.10;;;1.90;;
67640;SDS011;54434;50.096;20.082;2023-12-29T10:34:47;3.50;;;1.80;;
67640;SDS011;54434;50.096;20.082;2023-12-29T10:37:26;4.60;;;1.80;;
67640;SDS011;54434;50.096;20.082;2023-12-29T10:40:04;3.80;;;2.00;;
67640;SDS011;54434;50.096;20.082;2023-12-29T10:42:53;2.90;;;1.80;;
67640;SDS011;54434;50.096;20.082;2023-12-29T10:45:31;4.50;;;1.80;;
67640;SDS011;54434;50.096;20.082;2023-12-29T10:48:09;4.60;;;1.90;;
67640;SDS011;54434;50.096;20.082;2023-12-29T10:50:48;5.10;;;1.90;;
67640;SDS011;54434;50.096;20.082;2023-12-29T10:53:25;4.80;;;2.10;;
67640;SDS011;54434;50.096;20.082;2023-12-29T10:56:02;4.40;;;1.80;;
67640;SDS011;54434;50.096;20.082;2023-12-29T10:58:39;2.90;;;1.60;;
67640;SDS011;54434;50.096;20.082;2023-12-29T11:01:17;3.20;;;1.90;;
67640;SDS011;54434;50.096;20.082;2023-12-29T11:04:03;3.90;;;2.30;;
67640;SDS011;54434;50.096;20.082;2023-12-29T11:06:46;3.00;;;1.70;;
67640;SDS011;54434;50.096;20.082;2023-12-29T11:09:32;3.00;;;1.70;;
67640;SDS011;54434;50.096;20.082;2023-12-29T11:12:11;3.40;;;2.00;;
67640;SDS011;54434;50.096;20.082;2023-12-29T11:14:48;4.50;;;1.90;;
67640;SDS011;54434;50.096;20.082;2023-12-29T11:17:27;4.10;;;1.90;;
67640;SDS011;54434;50.096;20.082;2023-12-29T11:20:07;4.10;;;2.00;;
67640;SDS011;54434;50.096;20.082;2023-12-29T11:23:02;3.60;;;1.90;;
67640;SDS011;54434;50.096;20.082;2023-12-29T11:25:43;4.40;;;2.10;;
67640;SDS011;54434;50.096;20.082;2023-12-29T11:28:21;5.80;;;2.20;;
67640;SDS011;54434;50.096;20.082;2023-12-29T11:30:59;3.90;;;1.80;;
67640;SDS011;54434;50.096;20.082;2023-12-29T11:33:41;4.00;;;2.00;;
67640;SDS011;54434;50.096;20.082;2023-12-29T11:36:27;3.30;;;2.00;;
67640;SDS011;54434;50.096;20.082;2023-12-29T11:39:16;4.50;;;2.00;;
67640;SDS011;54434;50.096;20.082;2023-12-29T11:42:05;3.80;;;2.10;;
67640;SDS011;54434;50.096;20.082;2023-12-29T11:44:48;5.10;;;2.00;;
67640;SDS011;54434;50.096;20.082;2023-12-29T11:47:39;4.10;;;1.90;;
67640;SDS011;54434;50.096;20.082;2023-12-29T11:50:15;4.50;;;1.90;;
67640;SDS011;54434;50.096;20.082;2023-12-29T11:53:04;5.00;;;2.20;;
67640;SDS011;54434;50.096;20.082;2023-12-29T11:55:41;4.40;;;2.30;;
67640;SDS011;54434;50.096;20.082;2023-12-29T11:58:28;4.50;;;1.90;;
67640;SDS011;54434;50.096;20.082;2023-12-29T12:01:05;6.00;;;2.30;;
67640;SDS011;54434;50.096;20.082;2023-12-29T12:03:41;9.10;;;2.20;;
67640;SDS011;54434;50.096;20.082;2023-12-29T12:06:37;4.80;;;2.10;;
67640;SDS011;54434;50.096;20.082;2023-12-29T12:09:23;4.60;;;2.20;;
67640;SDS011;54434;50.096;20.082;2023-12-29T12:12:00;4.60;;;2.10;;
67640;SDS011;54434;50.096;20.082;2023-12-29T12:14:52;5.10;;;2.20;;
67640;SDS011;54434;50.096;20.082;2023-12-29T12:17:35;3.80;;;2.10;;
67640;SDS011;54434;50.096;20.082;2023-12-29T12:20:14;4.70;;;2.20;;
67640;SDS011;54434;50.096;20.082;2023-12-29T12:22:55;4.30;;;2.10;;
67640;SDS011;54434;50.096;20.082;2023-12-29T12:25:33;4.20;;;2.20;;
67640;SDS011;54434;50.096;20.082;2023-12-29T12:28:15;4.40;;;2.30;;
67640;SDS011;54434;50.096;20.082;2023-12-29T12:30:52;5.90;;;2.60;;
67640;SDS011;54434;50.096;20.082;2023-12-29T12:33:43;9.40;;;2.40;;
67640;SDS011;54434;50.096;20.082;2023-12-29T12:36:30;7.20;;;2.30;;
67640;SDS011;54434;50.096;20.082;2023-12-29T12:39:06;4.80;;;2.30;;
67640;SDS011;54434;50.096;20.082;2023-12-29T12:41:42;4.90;;;2.10;;
67640;SDS011;54434;50.096;20.082;2023-12-29T12:44:19;6.70;;;2.40;;
67640;SDS011;54434;50.096;20.082;2023-12-29T12:49:44;4.20;;;1.90;;
67640;SDS011;54434;50.096;20.082;2023-12-29T12:52:21;5.60;;;2.40;;
67640;SDS011;54434;50.096;20.082;2023-12-29T12:54:58;4.20;;;2.20;;
67640;SDS011;54434;50.096;20.082;2023-12-29T12:57:35;6.20;;;2.10;;
67640;SDS011;54434;50.096;20.082;2023-12-29T13:00:15;7.00;;;2.10;;
67640;SDS011;54434;50.096;20.082;2023-12-29T13:02:55;5.00;;;2.00;;
67640;SDS011;54434;50.096;20.082;2023-12-29T13:05:32;5.00;;;2.00;;
67640;SDS011;54434;50.096;20.082;2023-12-29T13:08:11;5.50;;;2.40;;
67640;SDS011;54434;50.096;20.082;2023-12-29T13:10:59;3.80;;;2.00;;
67640;SDS011;54434;50.096;20.082;2023-12-29T13:13:43;3.20;;;2.00;;
67640;SDS011;54434;50.096;20.082;2023-12-29T13:16:19;4.70;;;2.20;;
67640;SDS011;54434;50.096;20.082;2023-12-29T13:22:07;3.90;;;2.30;;
67640;SDS011;54434;50.096;20.082;2023-12-29T13:24:47;4.00;;;2.00;;
67640;SDS011;54434;50.096;20.082;2023-12-29T13:27:23;5.20;;;2.40;;
67640;SDS011;54434;50.096;20.082;2023-12-29T13:30:01;5.10;;;2.50;;
67640;SDS011;54434;50.096;20.082;2023-12-29T13:32:38;5.10;;;2.30;;
67640;SDS011;54434;50.096;20.082;2023-12-29T13:35:23;7.80;;;2.50;;
67640;SDS011;54434;50.096;20.082;2023-12-29T13:38:12;4.50;;;2.20;;
67640;SDS011;54434;50.096;20.082;2023-12-29T13:41:01;7.10;;;2.40;;
67640;SDS011;54434;50.096;20.082;2023-12-29T13:43:42;4.80;;;2.50;;
67640;SDS011;54434;50.096;20.082;2023-12-29T13:46:20;4.80;;;2.20;;
67640;SDS011;54434;50.096;20.082;2023-12-29T13:48:58;6.20;;;2.50;;
67640;SDS011;54434;50.096;20.082;2023-12-29T13:51:35;4.40;;;2.40;;
67640;SDS011;54434;50.096;20.082;2023-12-29T13:54:12;5.60;;;2.40;;
67640;SDS011;54434;50.096;20.082;2023-12-29T13:56:56;4.50;;;2.50;;
67640;SDS011;54434;50.096;20.082;2023-12-29T13:59:35;7.40;;;2.80;;
67640;SDS011;54434;50.096;20.082;2023-12-29T14:02:33;5.30;;;2.50;;
67640;SDS011;54434;50.096;20.082;2023-12-29T14:05:31;5.20;;;2.40;;
67640;SDS011;54434;50.096;20.082;2023-12-29T14:08:18;5.40;;;2.70;;
67640;SDS011;54434;50.096;20.082;2023-12-29T14:10:58;7.00;;;3.40;;
67640;SDS011;54434;50.096;20.082;2023-12-29T14:13:35;5.30;;;2.50;;
67640;SDS011;54434;50.096;20.082;2023-12-29T14:16:16;5.00;;;2.50;;
67640;SDS011;54434;50.096;20.082;2023-12-29T14:18:58;8.90;;;2.70;;
67640;SDS011;54434;50.096;20.082;2023-12-29T14:21:37;6.00;;;2.60;;
67640;SDS011;54434;50.096;20.082;2023-12-29T14:24:15;6.40;;;3.10;;
67640;SDS011;54434;50.096;20.082;2023-12-29T14:27:01;4.70;;;2.40;;
67640;SDS011;54434;50.096;20.082;2023-12-29T14:29:44;4.50;;;2.40;;
67640;SDS011;54434;50.096;20.082;2023-12-29T14:32:20;5.80;;;2.70;;
67640;SDS011;54434;50.096;20.082;2023-12-29T14:34:57;5.30;;;2.60;;
67640;SDS011;54434;50.096;20.082;2023-12-29T14:37:34;5.40;;;2.70;;
67640;SDS011;54434;50.096;20.082;2023-12-29T14:40:13;5.40;;;2.70;;
67640;SDS011;54434;50.096;20.082;2023-12-29T14:42:50;6.20;;;2.80;;
67640;SDS011;54434;50.096;20.082;2023-12-29T14:45:26;6.30;;;2.80;;
67640;SDS011;54434;50.096;20.082;2023-12-29T14:48:04;5.10;;;2.70;;
67640;SDS011;54434;50.096;20.082;2023-12-29T14:50:42;5.60;;;2.50;;
67640;SDS011;54434;50.096;20.082;2023-12-29T14:53:19;6.20;;;3.00;;
67640;SDS011;54434;50.096;20.082;2023-12-29T14:55:55;6.20;;;2.90;;
67640;SDS011;54434;50.096;20.082;2023-12-29T14:58:32;6.00;;;2.70;;
67640;SDS011;54434;50.096;20.082;2023-12-29T15:01:10;7.30;;;3.00;;
67640;SDS011;54434;50.096;20.082;2023-12-29T15:03:47;5.50;;;2.80;;
67640;SDS011;54434;50.096;20.082;2023-12-29T15:06:23;4.10;;;2.40;;
67640;SDS011;54434;50.096;20.082;2023-12-29T15:09:00;6.70;;;2.70;;
67640;SDS011;54434;50.096;20.082;2023-12-29T15:11:37;8.00;;;3.00;;
67640;SDS011;54434;50.096;20.082;2023-12-29T15:14:19;7.70;;;2.70;;
67640;SDS011;54434;50.096;20.082;2023-12-29T15:16:57;5.50;;;2.80;;
67640;SDS011;54434;50.096;20.082;2023-12-29T15:19:33;6.30;;;3.20;;
67640;SDS011;54434;50.096;20.082;2023-12-29T15:22:11;6.70;;;2.80;;
67640;SDS011;54434;50.096;20.082;2023-12-29T15:24:48;7.30;;;3.80;;
67640;SDS011;54434;50.096;20.082;2023-12-29T15:27:24;6.80;;;3.20;;
67640;SDS011;54434;50.096;20.082;2023-12-29T15:30:03;6.50;;;3.00;;
67640;SDS011;54434;50.096;20.082;2023-12-29T15:32:43;6.80;;;3.20;;